createdAt,value
2019-02-16T00:01:23.262Z,92.20
2019-02-16T00:03:50.173Z,92.60
2019-02-16T00:06:17.141Z,92.40
2019-02-16T00:08:44.098Z,92.30
2019-02-16T00:11:11.016Z,92.30
2019-02-16T00:13:38.070Z,92.60
2019-02-16T00:16:05.096Z,92.40
2019-02-16T00:18:32.141Z,92.40
2019-02-16T00:21:03.901Z,92.60
2019-02-16T00:23:28.041Z,92.70
2019-02-16T00:25:54.964Z,92.60
2019-02-16T00:28:21.836Z,92.70
2019-02-16T00:30:48.822Z,92.90
2019-02-16T00:33:15.807Z,93.10
2019-02-16T00:35:42.792Z,92.90
2019-02-16T00:38:09.985Z,93.00
2019-02-16T00:40:37.165Z,93.20
2019-02-16T00:43:04.181Z,93.00
2019-02-16T00:45:31.229Z,93.00
2019-02-16T00:47:58.219Z,92.70
2019-02-16T00:50:25.222Z,93.00
2019-02-16T00:52:52.259Z,92.90
2019-02-16T00:55:19.285Z,93.00
2019-02-16T00:57:46.189Z,93.10
2019-02-16T01:00:13.283Z,93.10
2019-02-16T01:02:40.283Z,93.50
2019-02-16T01:05:07.256Z,93.20
2019-02-16T01:07:34.253Z,93.50
2019-02-16T01:10:01.338Z,93.30
2019-02-16T01:12:28.445Z,93.10
2019-02-16T01:14:55.428Z,93.30
2019-02-16T01:17:22.334Z,93.20
2019-02-16T01:19:49.360Z,93.30
2019-02-16T01:22:16.254Z,93.10
2019-02-16T01:24:43.329Z,93.10
2019-02-16T01:27:10.305Z,93.40
2019-02-16T01:29:37.349Z,93.30
2019-02-16T01:32:04.368Z,93.60
2019-02-16T01:34:31.250Z,93.60
2019-02-16T01:36:58.212Z,93.60
2019-02-16T01:39:25.139Z,93.60
2019-02-16T01:41:52.187Z,93.60
2019-02-16T01:44:19.086Z,93.70
2019-02-16T01:46:46.079Z,93.30
2019-02-16T01:49:13.048Z,93.60
2019-02-16T01:51:39.991Z,93.90
2019-02-16T01:54:06.924Z,94.00
2019-02-16T01:56:53.289Z,94.10
2019-02-16T01:59:20.335Z,93.90
2019-02-16T02:01:47.359Z,94.10
2019-02-16T02:04:14.263Z,94.10
2019-02-16T02:06:41.185Z,94.00
2019-02-16T02:09:08.806Z,93.50
2019-02-16T02:11:36.139Z,93.50
2019-02-16T02:14:03.055Z,93.90
2019-02-16T02:16:30.107Z,93.50
2019-02-16T02:18:57.128Z,93.50
2019-02-16T02:21:24.150Z,93.50
2019-02-16T02:23:51.185Z,93.50
2019-02-16T02:26:18.084Z,93.60
2019-02-16T02:28:45.056Z,93.40
2019-02-16T02:31:31.479Z,93.40
2019-02-16T02:33:58.525Z,93.40
2019-02-16T02:36:25.466Z,93.20
2019-02-16T02:38:52.505Z,93.40
2019-02-16T02:41:19.540Z,93.50
2019-02-16T02:43:46.530Z,93.40
2019-02-16T02:46:13.547Z,93.00
2019-02-16T02:48:40.672Z,93.20
2019-02-16T02:51:07.693Z,93.40
2019-02-16T02:53:34.741Z,93.30
2019-02-16T02:56:01.677Z,93.40
2019-02-16T02:58:28.649Z,93.30
2019-02-16T03:00:55.604Z,93.70
2019-02-16T03:03:22.477Z,93.70
2019-02-16T03:05:50.878Z,93.50
2019-02-16T03:08:19.576Z,93.80
2019-02-16T03:10:46.612Z,94.00
2019-02-16T03:13:13.558Z,94.00
2019-02-16T03:15:40.608Z,94.00
2019-02-16T03:18:07.721Z,93.90
2019-02-16T03:20:34.611Z,93.70
2019-02-16T03:23:19.033Z,93.50
2019-02-16T03:25:53.017Z,93.50
2019-02-16T03:28:33.376Z,93.90
2019-02-16T03:31:54.230Z,94.10
2019-02-16T03:34:25.659Z,94.30
2019-02-16T03:37:25.213Z,94.20
2019-02-16T03:39:52.271Z,94.40
2019-02-16T03:42:19.168Z,94.30
2019-02-16T03:44:46.092Z,94.30
2019-02-16T03:47:12.979Z,94.10
2019-02-16T03:49:41.094Z,94.00
2019-02-16T03:52:13.915Z,94.30
2019-02-16T03:54:37.060Z,94.30
2019-02-16T03:57:03.979Z,94.30
2019-02-16T03:59:31.286Z,93.70
2019-02-16T04:01:58.302Z,93.20
2019-02-16T04:04:26.613Z,93.40
2019-02-16T04:06:53.632Z,94.30
2019-02-16T04:09:20.543Z,94.00
2019-02-16T04:11:48.168Z,93.90
2019-02-16T04:14:15.122Z,94.40
2019-02-16T04:16:42.171Z,94.80
2019-02-16T04:19:10.153Z,94.00
2019-02-16T04:21:37.086Z,93.60
2019-02-16T04:24:04.192Z,93.70
2019-02-16T04:26:31.212Z,94.00
2019-02-16T04:28:59.386Z,93.90
2019-02-16T04:31:26.310Z,93.70
2019-02-16T04:33:53.184Z,93.80
2019-02-16T04:36:20.141Z,93.60
2019-02-16T04:38:47.153Z,93.70
2019-02-16T04:41:14.048Z,93.70
2019-02-16T04:43:42.820Z,94.30
2019-02-16T04:46:09.693Z,94.40
2019-02-16T04:48:36.710Z,94.60
2019-02-16T04:51:03.707Z,94.70
2019-02-16T04:53:30.716Z,94.80
2019-02-16T04:55:57.810Z,94.50
2019-02-16T04:58:24.871Z,94.30
2019-02-16T05:00:51.864Z,94.20
2019-02-16T05:03:18.752Z,94.40
2019-02-16T05:05:45.810Z,94.50
2019-02-16T05:08:12.819Z,94.10
2019-02-16T05:10:39.837Z,94.00
2019-02-16T05:13:06.771Z,94.30
2019-02-16T05:15:33.647Z,94.30
2019-02-16T05:18:00.692Z,94.50
2019-02-16T05:20:29.421Z,94.50
2019-02-16T05:22:56.348Z,95.30
2019-02-16T05:25:23.340Z,94.60
2019-02-16T05:27:50.344Z,94.80
2019-02-16T05:30:17.232Z,94.90
2019-02-16T05:32:44.192Z,94.80
2019-02-16T05:35:11.084Z,95.00
2019-02-16T05:37:39.889Z,94.60
2019-02-16T05:40:07.190Z,94.00
2019-02-16T05:42:35.232Z,94.00
2019-02-16T05:45:02.254Z,93.90
2019-02-16T05:47:29.214Z,94.00
2019-02-16T05:49:56.185Z,94.10
2019-02-16T05:52:23.124Z,94.50
2019-02-16T05:54:51.828Z,94.10
2019-02-16T05:57:18.769Z,94.40
2019-02-16T05:59:47.093Z,94.10
2019-02-16T06:02:14.105Z,94.20
2019-02-16T06:04:41.034Z,93.90
2019-02-16T06:07:08.220Z,94.30
2019-02-16T06:09:35.207Z,94.20
2019-02-16T06:12:02.134Z,94.40
2019-02-16T06:14:30.789Z,94.50
2019-02-16T06:16:57.801Z,94.90
2019-02-16T06:19:24.722Z,94.50
2019-02-16T06:21:52.717Z,94.30
2019-02-16T06:24:19.764Z,94.20
2019-02-16T06:26:47.130Z,94.40
2019-02-16T06:29:16.077Z,94.10
2019-02-16T06:31:44.726Z,93.90
2019-02-16T06:34:12.281Z,93.70
2019-02-16T06:36:39.577Z,93.90
2019-02-16T06:39:06.657Z,94.30
2019-02-16T06:41:33.766Z,93.40
2019-02-16T06:44:01.279Z,93.10
2019-02-16T06:46:28.412Z,93.20
2019-02-16T06:48:55.829Z,93.60
2019-02-16T06:51:23.262Z,93.70
2019-02-16T06:53:50.525Z,94.00
2019-02-16T06:56:19.536Z,94.30
2019-02-16T06:58:46.431Z,94.70
2019-02-16T07:01:13.407Z,94.60
2019-02-16T07:03:40.432Z,94.40
2019-02-16T07:06:07.343Z,93.90
2019-02-16T07:08:34.376Z,94.00
2019-02-16T07:11:01.396Z,93.60
2019-02-16T07:13:28.322Z,93.60
2019-02-16T07:16:14.029Z,94.20
2019-02-16T07:18:43.021Z,94.00
2019-02-16T07:21:10.087Z,93.70
2019-02-16T07:23:37.106Z,94.00
2019-02-16T07:26:04.973Z,93.90
2019-02-16T07:28:32.193Z,93.90
2019-02-16T07:30:59.095Z,94.00
2019-02-16T07:33:26.154Z,93.80
2019-02-16T07:35:53.231Z,93.90
2019-02-16T07:38:20.226Z,94.50
2019-02-16T07:40:47.244Z,94.60
2019-02-16T07:43:16.206Z,94.80
2019-02-16T07:45:51.304Z,94.40
2019-02-16T07:48:20.778Z,94.20
2019-02-16T07:50:52.525Z,94.20
2019-02-16T07:53:35.061Z,94.40
2019-02-16T07:56:03.925Z,94.30
2019-02-16T07:58:35.431Z,94.70
2019-02-16T08:01:22.334Z,94.60
2019-02-16T08:03:54.244Z,94.50
2019-02-16T08:06:26.118Z,94.80
2019-02-16T08:08:55.084Z,95.10
2019-02-16T08:11:35.987Z,95.20
2019-02-16T08:14:14.035Z,95.20
2019-02-16T08:16:50.130Z,95.30
2019-02-16T08:19:36.304Z,95.00
2019-02-16T08:22:11.199Z,94.70
2019-02-16T08:24:49.236Z,94.70
2019-02-16T08:27:20.868Z,94.90
2019-02-16T08:29:57.193Z,95.00
2019-02-16T08:32:38.165Z,95.00
2019-02-16T08:35:16.018Z,95.30
2019-02-16T08:37:45.002Z,95.50
2019-02-16T08:40:28.955Z,95.50
2019-02-16T08:42:58.100Z,95.10
2019-02-16T08:45:26.914Z,94.90
2019-02-16T08:47:57.296Z,94.60
2019-02-16T08:50:34.934Z,94.50
2019-02-16T08:53:03.721Z,94.20
2019-02-16T08:55:32.706Z,94.10
2019-02-16T08:58:10.401Z,94.20
2019-02-16T09:00:39.280Z,94.20
2019-02-16T09:03:20.491Z,94.30
2019-02-16T09:05:52.329Z,94.10
2019-02-16T09:08:21.158Z,93.70
2019-02-16T09:10:50.041Z,93.40
2019-02-16T09:13:22.050Z,93.20
2019-02-16T09:16:06.217Z,93.00
2019-02-16T09:18:35.144Z,92.40
2019-02-16T09:21:04.017Z,92.30
2019-02-16T09:23:35.387Z,91.80
2019-02-16T09:26:04.207Z,91.10
2019-02-16T09:28:36.002Z,90.80
2019-02-16T09:31:21.922Z,90.60
2019-02-16T09:34:09.353Z,90.60
2019-02-16T09:36:45.380Z,90.40
2019-02-16T09:39:14.205Z,90.10
2019-02-16T09:41:44.317Z,89.10
2019-02-16T09:44:19.190Z,88.90
2019-02-16T09:46:48.112Z,88.90
2019-02-16T09:49:25.618Z,89.30
2019-02-16T09:52:09.417Z,89.10
2019-02-16T09:54:38.299Z,88.00
2019-02-16T09:57:13.028Z,88.50
2019-02-16T09:59:41.955Z,87.50
2019-02-16T10:02:16.800Z,86.90
2019-02-16T10:04:45.623Z,86.20
2019-02-16T10:07:20.275Z,86.50
2019-02-16T10:09:51.343Z,86.70
2019-02-16T10:12:20.141Z,86.90
2019-02-16T10:15:01.889Z,86.30
2019-02-16T10:17:33.459Z,84.90
2019-02-16T10:20:05.329Z,85.80
2019-02-16T10:25:38.571Z,84.70
2019-02-16T10:28:22.898Z,84.30
2019-02-16T10:31:10.698Z,83.10
2019-02-16T10:33:45.803Z,82.80
2019-02-16T10:36:17.787Z,83.10
2019-02-16T10:38:48.283Z,80.40
2019-02-16T10:41:34.067Z,75.70
2019-02-16T10:44:18.439Z,70.80
2019-02-16T10:46:47.525Z,69.00
2019-02-16T10:49:16.487Z,68.40
2019-02-16T10:52:02.435Z,69.10
2019-02-16T10:54:31.292Z,71.70
2019-02-16T10:57:06.368Z,73.70
2019-02-16T10:59:38.435Z,75.00
2019-02-16T11:02:14.703Z,74.90
2019-02-16T11:04:43.897Z,75.40
2019-02-16T11:07:17.325Z,76.00
2019-02-16T11:10:01.517Z,76.10
2019-02-16T11:12:31.719Z,76.60
2019-02-16T11:15:17.785Z,76.70
2019-02-16T11:17:49.762Z,76.60
2019-02-16T11:20:18.657Z,76.60
2019-02-16T11:22:47.606Z,76.60
2019-02-16T11:25:16.564Z,76.50
2019-02-16T11:27:57.736Z,76.60
2019-02-16T11:30:32.839Z,76.60
2019-02-16T11:33:01.796Z,76.60
2019-02-16T11:35:33.605Z,76.60
2019-02-16T11:38:11.560Z,76.70
2019-02-16T11:40:46.746Z,76.40
2019-02-16T11:43:17.829Z,76.10
2019-02-16T11:46:01.709Z,76.40
2019-02-16T11:48:33.204Z,76.10
2019-02-16T11:51:02.066Z,76.20
2019-02-16T11:53:35.165Z,76.10
2019-02-16T11:56:06.922Z,76.70
2019-02-16T11:58:48.680Z,76.90
2019-02-16T12:01:23.619Z,76.90
2019-02-16T12:03:55.103Z,76.80
2019-02-16T12:06:33.381Z,76.80
2019-02-16T12:09:02.182Z,76.90
2019-02-16T12:11:31.085Z,76.20
2019-02-16T12:13:59.900Z,76.10
2019-02-16T12:16:28.863Z,77.00
2019-02-16T12:18:58.470Z,76.50
2019-02-16T12:21:39.752Z,76.40
2019-02-16T12:24:17.759Z,75.90
2019-02-16T12:26:46.612Z,76.30
2019-02-16T12:29:15.643Z,76.40
2019-02-16T12:31:56.371Z,75.20
2019-02-16T12:34:27.976Z,75.00
2019-02-16T12:36:56.953Z,75.90
2019-02-16T12:39:25.871Z,75.60
2019-02-16T12:41:57.841Z,75.50
2019-02-16T12:44:26.919Z,76.20
2019-02-16T12:47:10.980Z,75.90
2019-02-16T12:49:42.593Z,75.60
2019-02-16T12:52:14.545Z,75.40
2019-02-16T12:55:00.038Z,73.80
2019-02-16T12:57:33.678Z,73.80
2019-02-16T13:00:03.578Z,74.10
2019-02-16T13:02:35.537Z,74.00
2019-02-16T13:05:07.658Z,74.10
2019-02-16T13:07:43.143Z,73.80
2019-02-16T13:10:23.951Z,73.00
2019-02-16T13:12:52.864Z,72.50
2019-02-16T13:15:30.833Z,72.90
2019-02-16T13:18:02.563Z,72.60
2019-02-16T13:20:37.548Z,72.80
2019-02-16T13:23:06.585Z,73.10
2019-02-16T13:25:38.578Z,71.10
2019-02-16T13:28:10.426Z,70.90
2019-02-16T13:30:45.584Z,71.30
2019-02-16T13:33:14.553Z,71.10
2019-02-16T13:35:43.482Z,71.20
2019-02-16T13:38:29.400Z,71.10
2019-02-16T13:41:00.984Z,70.30
2019-02-16T13:43:47.951Z,70.20
2019-02-16T13:46:19.734Z,70.20
2019-02-16T13:48:51.871Z,70.00
2019-02-16T13:51:27.022Z,70.50
2019-02-16T13:54:02.178Z,69.10
2019-02-16T13:56:31.063Z,68.80
2019-02-16T13:58:59.896Z,69.10
2019-02-16T14:01:31.930Z,68.40
2019-02-16T14:04:11.779Z,68.10
2019-02-16T14:06:46.975Z,68.20
2019-02-16T14:09:21.488Z,68.40
2019-02-16T14:11:50.447Z,68.20
2019-02-16T14:14:19.541Z,68.20
2019-02-16T14:16:51.406Z,68.20
2019-02-16T14:19:18.327Z,68.30
2019-02-16T14:21:45.473Z,69.00
2019-02-16T14:24:12.485Z,68.40
2019-02-16T14:26:39.497Z,68.40
2019-02-16T14:29:06.668Z,67.50
2019-02-16T14:31:33.689Z,67.90
2019-02-16T14:34:00.659Z,68.40
2019-02-16T14:36:27.724Z,67.60
2019-02-16T14:38:59.627Z,67.40
2019-02-16T14:41:26.647Z,67.10
2019-02-16T14:43:53.535Z,67.30
2019-02-16T14:46:20.847Z,67.50
2019-02-16T14:48:49.849Z,68.10
2019-02-16T14:51:16.543Z,68.30
2019-02-16T14:53:43.516Z,68.20
2019-02-16T14:56:10.545Z,68.20
2019-02-16T14:58:37.443Z,68.00
2019-02-16T15:01:04.550Z,68.30
2019-02-16T15:03:31.565Z,68.00
2019-02-16T15:05:58.434Z,68.40
2019-02-16T15:08:26.348Z,68.40
2019-02-16T15:10:53.300Z,68.40
2019-02-16T15:13:20.283Z,68.30
2019-02-16T15:15:47.228Z,68.30
2019-02-16T15:18:14.168Z,68.30
2019-02-16T15:20:41.107Z,68.30
2019-02-16T15:23:08.086Z,68.30
2019-02-16T15:25:35.061Z,68.30
2019-02-16T15:28:02.129Z,68.10
2019-02-16T15:30:29.100Z,68.70
2019-02-16T15:32:56.051Z,69.80
2019-02-16T15:35:23.108Z,69.40
2019-02-16T15:37:50.891Z,69.70
2019-02-16T15:40:18.056Z,70.20
2019-02-16T15:45:13.596Z,70.60
2019-02-16T15:47:40.658Z,71.20
2019-02-16T15:50:08.950Z,71.20
2019-02-16T15:52:39.382Z,71.50
2019-02-16T15:55:07.863Z,71.80
2019-02-16T15:57:35.030Z,72.10
2019-02-16T16:00:02.131Z,72.50
2019-02-16T16:02:30.426Z,72.50
2019-02-16T16:04:57.511Z,72.90
2019-02-16T16:07:24.508Z,73.00
2019-02-16T16:10:05.646Z,73.50
2019-02-16T16:12:40.589Z,73.80
2019-02-16T16:15:12.561Z,74.00
2019-02-16T16:17:41.608Z,74.50
2019-02-16T16:20:11.023Z,74.70
2019-02-16T16:22:49.017Z,75.00
2019-02-16T16:25:23.868Z,75.80
2019-02-16T16:28:04.813Z,76.30
2019-02-16T16:30:52.065Z,76.70
2019-02-16T16:33:30.517Z,76.60
2019-02-16T16:36:05.524Z,77.30
2019-02-16T16:38:46.172Z,78.20
2019-02-16T16:41:20.850Z,80.30
2019-02-16T16:43:52.164Z,81.20
2019-02-16T16:46:24.117Z,81.30
2019-02-16T16:49:11.380Z,81.80
2019-02-16T16:51:42.988Z,81.90
2019-02-16T16:54:23.467Z,82.80
2019-02-16T16:56:52.463Z,83.10
2019-02-16T16:59:21.349Z,83.70
2019-02-16T17:02:01.911Z,83.90
2019-02-16T17:04:39.701Z,84.40
2019-02-16T17:07:26.812Z,84.90
2019-02-16T17:09:55.755Z,85.50
2019-02-16T17:12:24.772Z,85.40
2019-02-16T17:15:10.257Z,85.50
2019-02-16T17:17:39.112Z,85.90
2019-02-16T17:20:08.268Z,85.90
2019-02-16T17:22:42.938Z,86.20
2019-02-16T17:25:11.768Z,86.80
2019-02-16T17:27:40.672Z,86.90
2019-02-16T17:30:29.396Z,86.50
2019-02-16T17:33:15.305Z,86.80
2019-02-16T17:35:54.160Z,86.60
2019-02-16T17:38:29.401Z,87.40
2019-02-16T17:41:01.364Z,87.60
2019-02-16T17:43:47.190Z,88.00
2019-02-16T17:46:24.708Z,88.50
2019-02-16T17:49:02.940Z,88.30
2019-02-16T17:51:33.037Z,88.60
2019-02-16T17:54:19.359Z,88.60
2019-02-16T17:57:05.472Z,88.90
2019-02-16T17:59:34.634Z,89.00
2019-02-16T18:02:06.262Z,90.00
2019-02-16T18:04:47.887Z,90.00
2019-02-16T18:07:33.911Z,90.10
2019-02-16T18:10:05.889Z,90.10
2019-02-16T18:12:40.673Z,90.40
2019-02-16T18:15:12.944Z,90.20
2019-02-16T18:17:44.264Z,90.60
2019-02-16T18:20:15.954Z,90.70
2019-02-16T18:22:47.606Z,90.50
2019-02-16T18:25:20.258Z,90.40
2019-02-16T18:27:49.322Z,90.90
2019-02-16T18:30:18.185Z,90.60
2019-02-16T18:32:49.806Z,91.00
2019-02-16T18:35:24.015Z,91.20
2019-02-16T18:37:49.395Z,91.10
2019-02-16T18:40:21.402Z,90.90
2019-02-16T18:42:50.673Z,90.50
2019-02-16T18:45:19.882Z,90.80
2019-02-16T18:48:05.137Z,90.40
2019-02-16T18:50:33.973Z,90.40
2019-02-16T18:53:05.639Z,90.90
2019-02-16T18:55:43.268Z,90.70
2019-02-16T18:58:24.139Z,90.80
2019-02-16T19:01:08.435Z,91.10
2019-02-16T19:03:40.285Z,91.10
2019-02-16T19:06:15.457Z,91.20
2019-02-16T19:08:50.646Z,91.00
2019-02-16T19:11:22.676Z,91.00
2019-02-16T19:14:07.678Z,91.70
2019-02-16T19:16:36.663Z,91.90
2019-02-16T19:19:08.300Z,91.90
2019-02-16T19:21:37.313Z,92.00
2019-02-16T19:24:06.596Z,92.40
2019-02-16T19:26:41.246Z,92.80
2019-02-16T19:29:13.016Z,92.50
2019-02-16T19:31:43.241Z,92.10
2019-02-16T19:34:14.226Z,92.30
2019-02-16T19:36:46.167Z,92.20
2019-02-16T19:39:15.335Z,92.30
2019-02-16T19:41:53.123Z,91.90
2019-02-16T19:44:22.386Z,92.10
2019-02-16T19:46:51.768Z,92.30
2019-02-16T19:49:37.981Z,92.00
2019-02-16T19:52:10.275Z,91.70
2019-02-16T19:54:45.110Z,92.30
2019-02-16T19:57:26.948Z,92.00
2019-02-16T20:00:11.689Z,92.00
2019-02-16T20:02:59.132Z,92.30
2019-02-16T20:05:44.095Z,92.60
2019-02-16T20:08:28.473Z,92.60
2019-02-16T20:11:12.397Z,93.30
2019-02-16T20:13:44.346Z,93.30
2019-02-16T20:16:19.728Z,92.90
2019-02-16T20:19:05.376Z,93.10
2019-02-16T20:21:43.492Z,92.90
2019-02-16T20:24:27.565Z,93.60
2019-02-16T20:26:59.734Z,93.80
2019-02-16T20:29:45.595Z,93.50
2019-02-16T20:32:26.798Z,93.90
2019-02-16T20:34:55.864Z,93.70
2019-02-16T20:37:36.765Z,93.30
2019-02-16T20:40:11.726Z,93.20
2019-02-16T20:42:41.036Z,93.20
2019-02-16T20:45:23.705Z,93.30
2019-02-16T20:47:52.767Z,93.70
2019-02-16T20:50:24.829Z,93.60
2019-02-16T20:52:56.575Z,93.70
2019-02-16T20:55:34.877Z,93.90
2019-02-16T20:58:20.724Z,94.00
2019-02-16T21:00:52.727Z,93.90
2019-02-16T21:03:21.759Z,93.70
2019-02-16T21:05:59.939Z,94.10
2019-02-16T21:08:44.527Z,94.50
2019-02-16T21:11:31.473Z,94.40
2019-02-16T21:14:18.993Z,94.50
2019-02-16T21:16:50.963Z,94.40
2019-02-16T21:19:22.644Z,94.40
2019-02-16T21:21:54.682Z,94.70
2019-02-16T21:24:32.953Z,94.90
2019-02-16T21:27:17.237Z,94.40
2019-02-16T21:29:46.420Z,94.80
2019-02-16T21:32:18.501Z,94.70
2019-02-16T21:34:53.374Z,94.50
2019-02-16T21:37:25.156Z,94.40
2019-02-16T21:39:57.684Z,94.40
2019-02-16T21:42:43.416Z,94.70
2019-02-16T21:45:15.499Z,94.30
2019-02-16T21:47:50.247Z,95.50
2019-02-16T21:50:36.035Z,95.20
2019-02-16T21:53:05.816Z,95.50
2019-02-16T21:55:52.830Z,94.90
2019-02-16T21:58:21.882Z,95.20
2019-02-16T22:00:53.763Z,95.00
2019-02-16T22:03:34.777Z,94.90
2019-02-16T22:06:20.551Z,94.90
2019-02-16T22:08:55.590Z,94.80
2019-02-16T22:11:27.614Z,95.20
2019-02-16T22:13:54.765Z,95.10
2019-02-16T22:16:22.664Z,95.20
2019-02-16T22:18:49.788Z,95.20
2019-02-16T22:21:17.957Z,95.20
2019-02-16T22:23:45.020Z,94.90
2019-02-16T22:26:12.088Z,95.00
2019-02-16T22:28:45.119Z,95.20
2019-02-16T22:31:12.082Z,95.50
2019-02-16T22:33:39.286Z,95.10
2019-02-16T22:36:06.507Z,95.50
2019-02-16T22:38:33.885Z,95.50
2019-02-16T22:41:02.016Z,95.40
2019-02-16T22:43:29.121Z,95.60
2019-02-16T22:45:56.205Z,95.40
2019-02-16T22:48:24.199Z,95.00
2019-02-16T22:50:51.305Z,95.50
2019-02-16T22:53:18.555Z,95.80
2019-02-16T22:55:45.716Z,95.10
2019-02-16T22:58:12.771Z,94.10
2019-02-16T23:00:43.701Z,94.50
2019-02-16T23:03:11.331Z,94.90
2019-02-16T23:05:38.433Z,94.50
2019-02-16T23:08:05.481Z,94.60
2019-02-16T23:10:32.637Z,94.80
2019-02-16T23:12:59.716Z,95.30
2019-02-16T23:15:27.183Z,94.70
2019-02-16T23:17:54.280Z,94.20
2019-02-16T23:20:21.288Z,94.00
2019-02-16T23:22:48.429Z,94.20
2019-02-16T23:25:16.437Z,95.00
2019-02-16T23:27:44.919Z,94.70
2019-02-16T23:30:12.126Z,95.20
2019-02-16T23:32:39.313Z,95.40
2019-02-16T23:35:06.444Z,95.40
2019-02-16T23:37:33.523Z,95.00
2019-02-16T23:40:00.637Z,94.40
2019-02-16T23:42:28.553Z,94.30
2019-02-16T23:44:56.141Z,94.50
2019-02-16T23:47:23.482Z,94.30
2019-02-16T23:49:50.734Z,94.60
2019-02-16T23:52:17.837Z,95.00
2019-02-16T23:54:44.870Z,94.40
2019-02-16T23:57:11.919Z,94.30
2019-02-16T23:59:39.104Z,94.40
